createdAt,value
2018-11-29T00:03:34.867Z,8.77
2018-11-29T00:07:52.013Z,10.13
2018-11-29T00:12:09.321Z,12.20
2018-11-29T00:16:19.183Z,11.35
2018-11-29T00:20:28.111Z,13.03
2018-11-29T00:24:41.541Z,14.37
2018-11-29T00:28:53.293Z,7.97
2018-11-29T00:33:01.033Z,12.17
2018-11-29T00:37:10.638Z,10.37
2018-11-29T00:41:29.581Z,9.80
2018-11-29T00:45:40.364Z,10.13
2018-11-29T00:49:57.322Z,10.57
2018-11-29T00:54:09.797Z,12.10
2018-11-29T00:58:21.835Z,12.00
2018-11-29T01:02:34.446Z,9.48
2018-11-29T01:06:47.097Z,11.60
2018-11-29T01:10:59.670Z,9.77
2018-11-29T01:15:14.827Z,11.03
2018-11-29T01:19:28.299Z,10.67
2018-11-29T01:23:36.613Z,9.27
2018-11-29T01:27:47.341Z,11.43
2018-11-29T01:31:53.419Z,12.23
2018-11-29T01:36:04.309Z,12.47
2018-11-29T01:40:25.521Z,14.87
2018-11-29T01:44:36.642Z,11.93
2018-11-29T01:48:55.685Z,16.77
2018-11-29T01:53:05.134Z,13.10
2018-11-29T01:57:18.730Z,12.18
2018-11-29T02:01:34.799Z,11.28
2018-11-29T02:05:48.622Z,13.07
2018-11-29T02:10:12.634Z,16.53
2018-11-29T02:14:28.215Z,13.65
2018-11-29T02:18:39.057Z,16.57
2018-11-29T02:22:50.003Z,12.43
2018-11-29T02:27:01.520Z,13.77
2018-11-29T02:31:10.914Z,15.80
2018-11-29T02:35:19.948Z,17.87
2018-11-29T02:39:26.338Z,20.50
2018-11-29T02:43:38.278Z,25.63
2018-11-29T02:47:52.785Z,17.83
2018-11-29T02:52:00.299Z,12.90
2018-11-29T02:56:12.356Z,14.95
2018-11-29T03:00:29.941Z,20.12
2018-11-29T03:04:39.783Z,15.60
2018-11-29T03:08:51.217Z,14.78
2018-11-29T03:13:06.670Z,17.50
2018-11-29T03:17:22.247Z,13.78
2018-11-29T03:21:42.149Z,15.00
2018-11-29T03:25:56.650Z,14.93
2018-11-29T03:30:09.495Z,17.52
2018-11-29T03:34:26.065Z,18.07
2018-11-29T03:38:37.422Z,17.90
2018-11-29T03:42:50.449Z,13.27
2018-11-29T03:47:03.124Z,14.23
2018-11-29T03:51:11.692Z,19.20
2018-11-29T03:55:24.343Z,15.40
2018-11-29T03:59:38.296Z,12.63
2018-11-29T04:03:50.898Z,14.23
2018-11-29T04:08:02.828Z,16.10
2018-11-29T04:12:18.451Z,11.47
2018-11-29T04:16:30.248Z,12.23
2018-11-29T04:20:42.768Z,14.93
2018-11-29T04:24:58.779Z,11.57
2018-11-29T04:29:07.045Z,13.87
2018-11-29T04:33:18.246Z,11.33
2018-11-29T04:37:26.696Z,13.50
2018-11-29T04:41:35.791Z,14.27
2018-11-29T04:46:35.016Z,13.03
2018-11-29T04:50:52.242Z,11.73
2018-11-29T04:55:04.897Z,10.53
2018-11-29T04:59:23.399Z,12.13
2018-11-29T05:03:35.157Z,13.30
2018-11-29T05:07:50.474Z,11.33
2018-11-29T05:12:04.998Z,11.27
2018-11-29T05:16:16.217Z,9.15
2018-11-29T05:20:26.488Z,11.48
2018-11-29T05:24:36.304Z,10.50
2018-11-29T05:28:49.101Z,10.43
2018-11-29T05:33:06.981Z,9.63
2018-11-29T05:37:18.919Z,9.77
2018-11-29T05:41:28.218Z,12.47
2018-11-29T05:45:38.976Z,11.67
2018-11-29T05:49:53.722Z,9.87
2018-11-29T05:54:08.902Z,10.10
2018-11-29T05:58:31.787Z,9.57
2018-11-29T06:02:45.677Z,11.00
2018-11-29T06:06:57.715Z,10.20
2018-11-29T06:11:10.316Z,11.20
2018-11-29T06:15:26.544Z,10.08
2018-11-29T06:19:38.413Z,13.30
2018-11-29T06:23:47.906Z,13.00
2018-11-29T06:28:06.829Z,9.67
2018-11-29T06:32:24.406Z,14.03
2018-11-29T06:36:33.805Z,11.23
2018-11-29T06:40:45.322Z,9.33
2018-11-29T06:44:55.120Z,10.93
2018-11-29T06:49:11.203Z,9.47
2018-11-29T06:53:36.080Z,8.00
2018-11-29T06:57:45.028Z,11.37
2018-11-29T07:02:02.060Z,11.67
2018-11-29T07:06:12.272Z,12.03
2018-11-29T07:10:33.125Z,12.70
2018-11-29T07:14:49.363Z,9.05
2018-11-29T07:19:01.008Z,10.13
2018-11-29T07:23:13.738Z,12.57
2018-11-29T07:27:27.308Z,9.87
2018-11-29T07:31:45.128Z,11.97
2018-11-29T07:35:56.748Z,11.30
2018-11-29T07:40:07.437Z,13.10
2018-11-29T07:44:19.932Z,14.40
2018-11-29T07:48:31.821Z,12.27
2018-11-29T07:52:43.465Z,13.07
2018-11-29T07:56:56.949Z,14.30
2018-11-29T08:01:09.319Z,15.00
2018-11-29T08:05:20.183Z,13.77
2018-11-29T08:09:35.431Z,13.53
2018-11-29T08:13:43.234Z,13.67
2018-11-29T08:17:55.676Z,14.10
2018-11-29T08:22:01.766Z,14.83
2018-11-29T08:26:10.158Z,13.00
2018-11-29T08:30:24.230Z,16.70
2018-11-29T08:34:35.985Z,15.97
2018-11-29T08:38:48.549Z,16.50
2018-11-29T08:42:58.414Z,14.00
2018-11-29T08:47:14.535Z,20.77
2018-11-29T08:51:24.421Z,16.87
2018-11-29T08:55:37.941Z,20.83
2018-11-29T08:59:51.837Z,19.87
2018-11-29T09:04:08.205Z,18.57
2018-11-29T09:08:17.708Z,19.60
2018-11-29T09:12:29.894Z,21.12
2018-11-29T09:16:47.084Z,26.67
2018-11-29T09:20:58.985Z,22.47
2018-11-29T09:25:11.750Z,20.80
2018-11-29T09:29:23.512Z,20.10
2018-11-29T09:33:35.299Z,21.90
2018-11-29T09:37:50.724Z,22.23
2018-11-29T09:42:03.067Z,21.53
2018-11-29T09:46:13.966Z,20.73
2018-11-29T09:50:29.713Z,22.50
2018-11-29T09:54:43.185Z,25.43
2018-11-29T09:59:02.198Z,21.03
2018-11-29T10:03:21.091Z,21.17
2018-11-29T10:07:33.114Z,21.33
2018-11-29T10:11:43.766Z,20.23
2018-11-29T10:15:56.326Z,18.70
2018-11-29T10:20:07.046Z,22.67
2018-11-29T10:24:19.728Z,20.48
2018-11-29T10:28:33.767Z,22.93
2018-11-29T10:32:43.761Z,20.97
2018-11-29T10:36:55.491Z,19.90
2018-11-29T10:41:04.202Z,19.90
2018-11-29T10:45:24.972Z,18.43
2018-11-29T10:49:37.253Z,17.00
2018-11-29T10:53:43.407Z,18.07
2018-11-29T10:57:57.740Z,16.87
2018-11-29T11:02:31.136Z,13.20
2018-11-29T11:06:49.161Z,16.97
2018-11-29T11:11:00.755Z,16.47
2018-11-29T11:15:09.231Z,17.62
2018-11-29T11:19:18.590Z,15.75
2018-11-29T11:23:32.554Z,15.88
2018-11-29T11:27:42.443Z,16.40
2018-11-29T11:31:55.718Z,14.37
2018-11-29T11:36:29.065Z,14.00
2018-11-29T11:40:44.094Z,15.00
2018-11-29T11:45:01.967Z,16.07
2018-11-29T11:49:17.933Z,15.58
2018-11-29T11:53:35.304Z,14.00
2018-11-29T11:57:46.982Z,15.00
2018-11-29T12:01:57.753Z,12.83
2018-11-29T12:06:13.839Z,14.17
2018-11-29T12:10:25.639Z,15.47
2018-11-29T12:14:39.829Z,15.97
2018-11-29T12:18:47.616Z,16.20
2018-11-29T12:22:56.181Z,14.80
2018-11-29T12:27:09.872Z,16.67
2018-11-29T12:31:15.941Z,17.47
2018-11-29T12:35:30.532Z,17.32
2018-11-29T12:39:43.356Z,18.63
2018-11-29T12:43:54.085Z,17.13
2018-11-29T12:48:04.713Z,18.17
2018-11-29T12:52:15.222Z,17.60
2018-11-29T12:56:26.838Z,15.03
2018-11-29T13:00:38.939Z,15.97
2018-11-29T13:04:52.331Z,15.00
2018-11-29T13:09:16.975Z,13.90
2018-11-29T13:13:32.230Z,16.37
2018-11-29T13:17:43.105Z,12.67
2018-11-29T13:21:54.652Z,13.17
2018-11-29T13:26:02.126Z,16.40
2018-11-29T13:30:17.167Z,16.80
2018-11-29T13:34:29.648Z,14.03
2018-11-29T13:38:37.054Z,15.80
2018-11-29T13:42:48.809Z,14.07
2018-11-29T13:47:03.719Z,16.33
2018-11-29T13:51:11.667Z,14.17
2018-11-29T13:55:22.805Z,15.53
2018-11-29T13:59:39.072Z,13.83
2018-11-29T14:03:53.264Z,15.40
2018-11-29T14:08:01.489Z,15.43
2018-11-29T14:12:16.429Z,15.17
2018-11-29T14:16:24.977Z,15.60
2018-11-29T14:20:44.830Z,11.63
2018-11-29T14:25:12.416Z,12.20
2018-11-29T14:29:25.638Z,14.07
2018-11-29T14:33:38.289Z,15.77
2018-11-29T14:37:52.324Z,13.33
2018-11-29T14:42:02.315Z,11.60
2018-11-29T14:46:12.447Z,11.83
2018-11-29T14:50:35.706Z,11.57
2018-11-29T14:54:44.628Z,13.53
2018-11-29T14:58:53.612Z,10.53
2018-11-29T15:03:05.799Z,12.13
2018-11-29T15:07:18.342Z,12.37
2018-11-29T15:11:30.325Z,12.73
2018-11-29T15:15:43.885Z,14.80
2018-11-29T15:19:53.075Z,11.60
2018-11-29T15:24:10.609Z,12.03
2018-11-29T15:28:23.592Z,15.68
2018-11-29T15:32:35.151Z,11.43
2018-11-29T15:36:47.878Z,11.47
2018-11-29T15:41:02.566Z,12.27
2018-11-29T15:45:28.546Z,10.77
2018-11-29T15:49:49.349Z,10.60
2018-11-29T15:54:01.929Z,11.20
2018-11-29T15:58:14.739Z,9.93
2018-11-29T16:02:22.140Z,11.37
2018-11-29T16:06:34.602Z,10.17
2018-11-29T16:10:46.621Z,9.03
2018-11-29T16:15:05.325Z,9.27
2018-11-29T16:19:17.067Z,8.35
2018-11-29T16:23:25.246Z,10.23
2018-11-29T16:27:37.831Z,8.43
2018-11-29T16:31:46.231Z,8.00
2018-11-29T16:35:56.939Z,8.03
2018-11-29T16:40:16.418Z,6.90
2018-11-29T16:44:29.320Z,7.97
2018-11-29T16:48:39.466Z,8.30
2018-11-29T16:52:47.715Z,7.07
2018-11-29T16:57:01.183Z,6.40
2018-11-29T17:01:20.247Z,7.00
2018-11-29T17:05:32.289Z,7.73
2018-11-29T17:09:49.384Z,7.97
2018-11-29T17:14:04.868Z,7.63
2018-11-29T17:18:23.752Z,6.83
2018-11-29T17:22:36.173Z,10.63
2018-11-29T17:26:44.364Z,6.20
2018-11-29T17:30:56.944Z,6.00
2018-11-29T17:35:09.871Z,7.33
2018-11-29T17:39:24.427Z,8.18
2018-11-29T17:43:31.921Z,8.03
2018-11-29T17:47:44.581Z,10.90
2018-11-29T17:51:58.942Z,8.57
2018-11-29T17:56:07.473Z,8.70
2018-11-29T18:00:36.312Z,9.28
2018-11-29T18:04:49.096Z,10.03
2018-11-29T18:08:59.080Z,13.20
2018-11-29T18:13:28.264Z,10.00
2018-11-29T18:17:41.743Z,7.13
2018-11-29T18:21:55.858Z,7.73
2018-11-29T18:26:04.003Z,7.30
2018-11-29T18:30:28.818Z,7.13
2018-11-29T18:34:41.635Z,7.90
2018-11-29T18:38:52.562Z,8.73
2018-11-29T18:43:02.103Z,9.63
2018-11-29T18:47:13.054Z,12.80
2018-11-29T18:51:24.035Z,8.63
2018-11-29T18:55:32.286Z,9.43
2018-11-29T18:59:49.169Z,9.27
2018-11-29T19:03:59.910Z,7.87
2018-11-29T19:08:12.997Z,7.80
2018-11-29T19:12:24.644Z,8.35
2018-11-29T19:16:38.508Z,9.47
2018-11-29T19:20:51.952Z,7.90
2018-11-29T19:24:57.884Z,7.93
2018-11-29T19:29:14.921Z,7.00
2018-11-29T19:33:30.640Z,7.45
2018-11-29T19:37:41.014Z,8.03
2018-11-29T19:41:47.632Z,8.23
2018-11-29T19:45:57.101Z,6.97
2018-11-29T19:50:04.838Z,7.73
2018-11-29T19:54:14.621Z,7.33
2018-11-29T19:58:24.806Z,6.83
2018-11-29T20:02:38.216Z,6.83
2018-11-29T20:06:52.559Z,7.20
2018-11-29T20:11:03.373Z,6.30
2018-11-29T20:15:17.015Z,8.60
2018-11-29T20:19:27.854Z,6.97
2018-11-29T20:23:44.785Z,7.03
2018-11-29T20:27:55.781Z,6.30
2018-11-29T20:32:10.756Z,7.83
2018-11-29T20:36:25.956Z,6.75
2018-11-29T20:40:41.182Z,6.77
2018-11-29T20:44:50.986Z,7.12
2018-11-29T20:49:01.966Z,6.50
2018-11-29T20:53:15.525Z,8.15
2018-11-29T20:57:26.051Z,6.72
2018-11-29T21:01:40.577Z,7.30
2018-11-29T21:05:49.747Z,8.43
2018-11-29T21:10:03.168Z,6.70
2018-11-29T21:14:14.471Z,7.07
2018-11-29T21:18:25.160Z,8.10
2018-11-29T21:22:42.069Z,8.83
2018-11-29T21:26:57.969Z,7.97
2018-11-29T21:31:08.836Z,7.03
2018-11-29T21:35:25.924Z,6.13
2018-11-29T21:39:36.648Z,6.12
2018-11-29T21:43:50.085Z,6.63
2018-11-29T21:48:00.902Z,6.00
2018-11-29T21:52:08.846Z,8.63
2018-11-29T21:56:20.717Z,6.62
2018-11-29T22:00:36.244Z,6.07
2018-11-29T22:04:48.141Z,6.13
2018-11-29T22:11:06.890Z,6.63
2018-11-29T22:15:20.677Z,8.15
2018-11-29T22:19:35.907Z,5.23
2018-11-29T22:23:44.093Z,9.07
2018-11-29T22:27:57.093Z,5.60
2018-11-29T22:32:09.934Z,7.27
2018-11-29T22:36:19.854Z,5.30
2018-11-29T22:40:36.963Z,7.50
2018-11-29T22:44:45.315Z,6.37
2018-11-29T22:48:52.986Z,5.43
2018-11-29T22:53:08.188Z,9.53
2018-11-29T22:57:22.916Z,7.50
2018-11-29T23:01:34.221Z,6.87
2018-11-29T23:05:50.605Z,5.63
2018-11-29T23:10:09.315Z,7.83
2018-11-29T23:14:42.885Z,7.12
2018-11-29T23:19:11.588Z,6.33
2018-11-29T23:23:27.884Z,5.75
2018-11-29T23:27:38.665Z,5.40
2018-11-29T23:31:55.013Z,7.07
2018-11-29T23:36:06.892Z,7.20
2018-11-29T23:40:26.693Z,11.47
2018-11-29T23:44:39.344Z,6.73
2018-11-29T23:48:50.222Z,5.50
2018-11-29T23:52:59.694Z,7.33
2018-11-29T23:57:09.631Z,6.30
